Time;durP1;ratioP1;P1;durP2;ratioP2;P2;SDS_P1;SDS_P2;PMS_P1;PMS_P2;Temp;Humidity;BMP_temperature;BMP_pressure;BME280_temperature;BME280_humidity;BME280_pressure;Samples;Min_cycle;Max_cycle;Signal;HPM_P1;HPM_P2
2021/09/12 00:04:17;;;;;;;5.60;4.82;;;;;;;14.75;97.05;96479.19;5304939;55;20114;-79
2021/09/12 00:09:19;;;;;;;5.90;4.35;;;;;;;14.68;96.74;96473.25;5314361;55;20650;-79
2021/09/12 00:14:22;;;;;;;8.63;4.70;;;;;;;14.68;96.55;96464.91;5315122;55;20122;-79
2021/09/12 00:19:24;;;;;;;7.97;4.90;;;;;;;14.59;96.82;96456.72;5315742;55;20119;-79
2021/09/12 00:24:27;;;;;;;8.65;5.65;;;;;;;14.60;99.54;96466.59;5315325;55;20126;-79
2021/09/12 00:29:30;;;;;;;7.93;6.03;;;;;;;14.57;99.01;96459.22;5310793;55;20118;-79
2021/09/12 00:34:32;;;;;;;8.48;6.30;;;;;;;14.62;98.42;96453.75;5300760;55;20119;-79
2021/09/12 00:39:35;;;;;;;8.52;5.55;;;;;;;14.60;98.01;96464.59;5307391;55;20123;-79
2021/09/12 00:44:37;;;;;;;8.63;5.50;;;;;;;14.57;98.06;96457.19;5307407;55;20173;-78
2021/09/12 00:49:41;;;;;;;9.48;5.63;;;;;;;14.57;98.19;96453.66;5310101;55;20587;-79
2021/09/12 00:54:44;;;;;;;7.35;5.95;;;;;;;14.61;97.83;96448.66;5310690;55;20115;-79
2021/09/12 00:59:49;;;;;;;8.20;5.65;;;;;;;14.60;97.41;96455.47;5310865;56;20123;-79
2021/09/12 01:04:51;;;;;;;5.07;4.57;;;;;;;14.58;97.10;96450.41;5310493;56;20127;-79
2021/09/12 01:09:53;;;;;;;5.25;3.97;;;;;;;14.51;96.64;96452.81;5310237;56;20767;-78
2021/09/12 01:14:56;;;;;;;3.97;3.47;;;;;;;14.40;97.22;96449.88;5309130;55;20698;-79
2021/09/12 01:19:58;;;;;;;3.30;3.10;;;;;;;14.36;97.15;96455.63;5309115;56;20224;-79
2021/09/12 01:25:01;;;;;;;3.88;3.58;;;;;;;14.31;97.51;96453.56;5309576;56;20123;-79
2021/09/12 01:30:04;;;;;;;4.30;3.90;;;;;;;14.29;97.49;96450.47;5299805;56;20114;-79
2021/09/12 01:35:07;;;;;;;6.50;3.85;;;;;;;14.22;97.41;96445.31;5309775;56;20163;-79
2021/09/12 01:40:10;;;;;;;6.75;4.63;;;;;;;14.19;97.29;96443.50;5311684;55;20110;-79
2021/09/12 01:45:12;;;;;;;5.43;4.60;;;;;;;14.10;97.11;96438.81;5304049;55;20123;-79
2021/09/12 01:50:16;;;;;;;4.95;4.47;;;;;;;14.15;97.31;96429.81;5313232;55;20235;-78
2021/09/12 01:55:19;;;;;;;6.65;5.18;;;;;;;14.08;97.63;96430.19;5312947;55;20123;-79
2021/09/12 02:00:21;;;;;;;5.65;5.00;;;;;;;14.08;97.89;96426.66;5304600;55;20119;-79
2021/09/12 02:05:24;;;;;;;8.82;4.93;;;;;;;14.12;97.09;96433.53;5310132;55;20110;-78
2021/09/12 02:10:28;;;;;;;7.93;5.15;;;;;;;14.12;97.17;96425.22;5320099;55;20122;-78
2021/09/12 02:15:30;;;;;;;5.00;4.55;;;;;;;14.01;97.06;96425.03;5319327;55;20114;-78
2021/09/12 02:20:33;;;;;;;5.93;5.18;;;;;;;14.04;97.64;96435.19;5321311;55;20141;-79
2021/09/12 02:25:36;;;;;;;4.97;4.22;;;;;;;13.99;97.75;96438.66;5305635;55;20114;-79
2021/09/12 02:30:39;;;;;;;7.85;4.47;;;;;;;14.03;96.89;96433.66;5312819;55;20596;-79
2021/09/12 02:35:42;;;;;;;5.32;4.35;;;;;;;13.95;97.45;96432.53;5312600;55;20114;-80
2021/09/12 02:40:44;;;;;;;6.82;4.97;;;;;;;13.84;97.39;96432.34;5316891;55;20114;-79
2021/09/12 02:45:47;;;;;;;4.43;4.03;;;;;;;13.90;97.34;96435.97;5319887;55;20116;-80
2021/09/12 02:50:49;;;;;;;4.93;4.45;;;;;;;13.80;96.99;96442.88;5315856;55;20141;-80
2021/09/12 02:55:51;;;;;;;4.57;4.18;;;;;;;13.78;97.25;96444.59;5314550;55;20136;-80
2021/09/12 03:00:54;;;;;;;6.20;4.70;;;;;;;13.72;96.97;96444.53;5313872;55;20579;-80
2021/09/12 03:05:56;;;;;;;5.30;4.80;;;;;;;13.75;96.96;96445.59;5303263;55;20302;-80
2021/09/12 03:10:59;;;;;;;5.68;5.00;;;;;;;13.77;97.03;96443.88;5312894;55;20127;-79
2021/09/12 03:16:01;;;;;;;5.85;4.90;;;;;;;13.73;97.04;96432.16;5312912;55;20114;-80
2021/09/12 03:21:04;;;;;;;5.60;4.35;;;;;;;13.82;96.90;96442.41;5312874;55;20114;-80
2021/09/12 03:26:06;;;;;;;5.03;4.55;;;;;;;13.71;97.40;96440.22;5313291;55;20101;-80
2021/09/12 03:31:09;;;;;;;13.25;5.30;;;;;;;13.77;97.20;96429.97;5304145;55;20137;-79
2021/09/12 03:36:11;;;;;;;13.43;4.70;;;;;;;13.71;97.33;96423.53;5312850;55;20859;-80
2021/09/12 03:41:14;;;;;;;6.07;4.90;;;;;;;13.68;97.20;96425.28;5303422;55;20118;-79
2021/09/12 03:46:16;;;;;;;10.88;5.53;;;;;;;13.61;97.21;96419.34;5310198;55;20128;-79
2021/09/12 03:51:19;;;;;;;5.80;5.18;;;;;;;13.61;97.48;96419.34;5309386;55;20132;-79
2021/09/12 03:56:22;;;;;;;6.10;5.50;;;;;;;13.62;97.56;96418.88;5298769;55;20119;-78
2021/09/12 04:01:24;;;;;;;8.63;5.60;;;;;;;13.67;97.66;96422.97;5300220;55;20127;-79
2021/09/12 04:06:27;;;;;;;7.38;5.78;;;;;;;13.62;98.74;96426.41;5311095;55;20110;-79
2021/09/12 04:11:29;;;;;;;9.73;6.35;;;;;;;13.70;98.70;96432.38;5302048;55;20150;-79
2021/09/12 04:16:32;;;;;;;7.20;6.07;;;;;;;13.81;98.17;96427.75;5310956;55;20127;-79
2021/09/12 04:21:34;;;;;;;6.60;5.90;;;;;;;13.89;97.75;96437.22;5310992;55;20128;-79
2021/09/12 04:26:37;;;;;;;7.85;6.07;;;;;;;14.03;97.35;96433.66;5301886;55;20166;-79
2021/09/12 04:31:39;;;;;;;7.18;5.85;;;;;;;14.01;97.84;96422.25;5311183;55;20123;-79
2021/09/12 04:36:42;;;;;;;6.15;5.55;;;;;;;14.16;97.88;96420.22;5310522;55;20123;-80
2021/09/12 04:41:44;;;;;;;5.72;4.97;;;;;;;14.32;97.15;96421.72;5310610;55;20123;-79
2021/09/12 04:46:46;;;;;;;9.18;6.03;;;;;;;14.38;96.97;96427.38;5311170;55;20318;-79
2021/09/12 04:51:49;;;;;;;8.02;5.57;;;;;;;14.32;97.35;96430.06;5311753;55;20127;-80
2021/09/12 04:56:51;;;;;;;6.90;5.38;;;;;;;14.34;97.00;96424.78;5311188;55;20114;-80
2021/09/12 05:01:54;;;;;;;8.40;4.95;;;;;;;14.30;97.03;96424.22;5302101;56;20124;-79
2021/09/12 05:06:56;;;;;;;6.30;5.05;;;;;;;14.45;96.65;96436.03;5310644;55;20202;-79
2021/09/12 05:11:59;;;;;;;8.60;5.43;;;;;;;14.50;96.27;96431.81;5310127;56;20649;-79
2021/09/12 05:17:01;;;;;;;8.55;5.43;;;;;;;14.43;96.98;96421.88;5312490;55;20118;-79
2021/09/12 05:22:04;;;;;;;6.00;5.40;;;;;;;14.49;97.93;96438.63;5313755;55;20114;-79
2021/09/12 05:27:06;;;;;;;5.13;4.63;;;;;;;14.59;97.20;96440.78;5313639;55;20578;-79
2021/09/12 05:32:08;;;;;;;7.95;4.90;;;;;;;14.66;96.46;96436.81;5313838;55;20608;-79
2021/09/12 05:37:12;;;;;;;5.72;5.07;;;;;;;14.76;96.18;96441.00;5313818;55;20128;-79
2021/09/12 05:42:14;;;;;;;7.32;5.03;;;;;;;14.61;96.56;96434.75;5314324;55;20128;-79
2021/09/12 05:47:16;;;;;;;8.40;4.70;;;;;;;14.80;95.90;96436.00;5313843;55;20123;-80
2021/09/12 05:52:19;;;;;;;8.27;4.80;;;;;;;14.86;95.79;96439.59;5313774;55;20136;-79
2021/09/12 05:57:21;;;;;;;5.97;4.55;;;;;;;15.02;95.90;96444.59;5314662;55;20731;-80
2021/09/12 06:02:23;;;;;;;5.35;4.78;;;;;;;15.07;96.19;96449.47;5305973;55;20123;-80
2021/09/12 06:07:26;;;;;;;5.25;4.38;;;;;;;15.20;96.32;96452.66;5332149;55;20088;-81
2021/09/12 06:12:28;;;;;;;6.72;4.82;;;;;;;15.19;96.56;96442.78;5320149;55;20146;-82
2021/09/12 06:17:33;;;;;;;5.28;4.78;;;;;;;15.46;96.45;96456.28;5315796;55;20208;-81
2021/09/12 06:22:44;;;;;;;6.68;5.28;;;;;;;15.71;97.58;96446.38;5315896;55;20580;-82
2021/09/12 06:27:47;;;;;;;6.70;5.53;;;;;;;15.96;98.59;96461.53;5314501;55;20136;-82
2021/09/12 06:32:51;;;;;;;6.82;6.10;;;;;;;16.27;96.66;96467.84;5306282;55;20175;-82
2021/09/12 06:37:53;;;;;;;6.32;5.70;;;;;;;16.40;96.93;96451.47;5315673;55;20109;-83
2021/09/12 06:43:00;;;;;;;7.43;6.22;;;;;;;16.77;96.46;96457.03;5292032;55;20111;-82
2021/09/12 06:48:03;;;;;;;7.40;6.70;;;;;;;17.14;96.53;96466.06;5292965;56;20124;-82
2021/09/12 06:53:06;;;;;;;8.02;6.30;;;;;;;17.37;95.25;96457.78;5293968;56;20132;-82
2021/09/12 06:58:08;;;;;;;9.00;7.50;;;;;;;17.74;93.36;96466.75;5291784;55;20127;-82
2021/09/12 07:03:10;;;;;;;7.15;5.80;;;;;;;18.07;91.69;96447.19;5281473;56;20116;-82
2021/09/12 07:08:13;;;;;;;10.45;6.60;;;;;;;18.65;90.26;96461.41;5289273;56;20115;-82
2021/09/12 07:13:16;;;;;;;6.32;5.72;;;;;;;19.14;87.79;96460.47;5294887;56;20212;-82
2021/09/12 07:18:18;;;;;;;8.13;6.60;;;;;;;19.33;86.91;96464.97;5280177;56;20156;-82
2021/09/12 07:23:20;;;;;;;7.15;6.32;;;;;;;19.63;86.09;96467.88;5287337;56;20142;-82
2021/09/12 07:28:23;;;;;;;7.18;6.47;;;;;;;19.72;84.54;96475.25;5287992;56;20133;-81
2021/09/12 07:33:25;;;;;;;6.43;5.70;;;;;;;19.81;85.59;96469.31;5295715;56;20603;-83
2021/09/12 07:38:30;;;;;;;7.72;6.65;;;;;;;19.88;85.86;96472.31;5291807;55;20120;-83
2021/09/12 07:43:32;;;;;;;7.18;6.07;;;;;;;20.02;84.89;96468.38;5288782;55;20119;-83
2021/09/12 07:48:34;;;;;;;7.35;6.65;;;;;;;20.08;85.25;96471.16;5299085;55;20119;-83
2021/09/12 07:53:37;;;;;;;7.05;6.35;;;;;;;19.93;85.63;96473.56;5286717;55;20124;-82
2021/09/12 07:58:39;;;;;;;7.63;6.40;;;;;;;20.28;86.57;96479.19;5295598;55;20237;-82
2021/09/12 08:03:42;;;;;;;8.30;7.18;;;;;;;20.26;82.95;96476.16;5295191;55;20159;-82
2021/09/12 08:08:44;;;;;;;11.07;8.10;;;;;;;20.55;83.24;96483.78;5288388;56;20687;-83
2021/09/12 08:13:46;;;;;;;9.10;6.72;;;;;;;20.54;83.39;96487.88;5298844;55;20111;-82
2021/09/12 08:18:49;;;;;;;8.23;6.40;;;;;;;20.67;79.24;96478.81;5291697;55;20118;-83
2021/09/12 08:23:52;;;;;;;8.27;7.40;;;;;;;21.13;77.90;96491.88;5289767;55;20233;-83
2021/09/12 08:28:54;;;;;;;8.57;7.47;;;;;;;21.42;76.30;96493.81;5295009;55;20124;-83
2021/09/12 08:33:56;;;;;;;8.50;6.65;;;;;;;22.19;74.92;96486.34;5283005;55;20760;-82
2021/09/12 08:38:59;;;;;;;8.65;6.03;;;;;;;22.79;69.56;96493.06;5273339;55;20124;-80
2021/09/12 08:44:02;;;;;;;7.25;5.80;;;;;;;23.89;64.37;96485.69;5289278;55;20128;-81
2021/09/12 08:49:05;;;;;;;6.20;5.60;;;;;;;23.81;65.20;96490.50;5286107;55;20123;-82
2021/09/12 08:54:07;;;;;;;7.47;6.30;;;;;;;23.61;65.81;96494.78;5296375;55;20110;-81
2021/09/12 08:59:50;;;;;;;6.90;5.90;;;;;;;22.38;72.25;96477.88;5282950;55;20119;-81
2021/09/12 09:05:03;;;;;;;5.68;5.18;;;;;;;22.25;74.02;96484.22;5230596;56;20119;-83
2021/09/12 09:10:20;;;;;;;9.13;5.30;;;;;;;22.13;71.50;96491.31;5286262;56;20119;-82
2021/09/12 09:15:22;;;;;;;4.60;4.20;;;;;;;23.23;67.77;96482.22;5294726;56;20271;-82
2021/09/12 09:20:32;;;;;;;4.45;4.10;;;;;;;23.21;65.40;96484.81;5291026;56;20120;-82
2021/09/12 09:25:35;;;;;;;4.75;4.07;;;;;;;23.43;70.15;96478.75;5284509;56;20129;-82
2021/09/12 09:30:53;;;;;;;4.35;3.95;;;;;;;24.99;59.90;96485.06;5300617;56;20102;-81
2021/09/12 09:35:57;;;;;;;5.70;3.60;;;;;;;24.14;61.00;96486.94;5291037;56;20119;-80
2021/09/12 09:41:05;;;;;;;3.30;3.10;;;;;;;23.21;65.25;96473.53;5284088;56;20129;-82
2021/09/12 09:46:31;;;;;;;;;;;;;;;22.54;69.44;96471.97;5286435;56;20116;-81
2021/09/12 09:51:35;;;;;;;4.03;3.72;;;;;;;22.21;70.67;96477.41;5281568;56;20082;-82
2021/09/12 09:56:38;;;;;;;4.22;3.55;;;;;;;22.45;71.83;96472.38;5271986;56;20194;-81
2021/09/12 10:01:41;;;;;;;3.90;3.60;;;;;;;22.44;71.70;96453.19;5282956;55;20154;-81
2021/09/12 10:06:45;;;;;;;4.72;3.72;;;;;;;22.26;71.69;96459.63;5284808;55;20317;-81
2021/09/12 10:11:52;;;;;;;4.25;3.85;;;;;;;22.37;72.45;96453.81;5284534;55;20137;-81
2021/09/12 10:16:55;;;;;;;5.10;4.05;;;;;;;22.13;75.46;96457.53;5288430;55;20148;-81
2021/09/12 10:22:00;;;;;;;3.80;3.50;;;;;;;22.32;72.45;96454.69;5293513;55;20795;-82
2021/09/12 10:27:41;;;;;;;3.92;3.60;;;;;;;22.25;68.69;96447.63;5291559;56;20715;-81
2021/09/12 10:32:43;;;;;;;3.67;3.35;;;;;;;22.81;71.26;96441.78;5294187;56;20115;-81
2021/09/12 10:38:13;;;;;;;3.70;3.20;;;;;;;23.52;65.93;96436.75;5297139;56;20119;-81
2021/09/12 10:43:25;;;;;;;3.30;3.10;;;;;;;23.53;66.51;96432.63;5297094;56;20124;-81
2021/09/12 10:48:29;;;;;;;3.00;2.80;;;;;;;23.44;63.54;96432.31;5299466;56;20768;-81
2021/09/12 10:58:58;;;;;;;3.10;2.90;;;;;;;26.34;53.19;96419.03;5291962;55;20111;-79
2021/09/12 11:04:03;;;;;;;2.75;2.55;;;;;;;26.07;52.69;96423.50;5286199;55;20129;-81
2021/09/12 11:09:16;;;;;;;2.60;2.40;;;;;;;26.42;52.03;96422.59;5283158;55;20132;-80
2021/09/12 11:14:19;;;;;;;2.88;2.45;;;;;;;25.63;55.97;96417.91;5287928;55;20536;-81
2021/09/12 11:19:22;;;;;;;2.65;2.45;;;;;;;26.83;53.26;96421.47;5274908;55;20106;-81
2021/09/12 11:24:30;;;;;;;2.75;2.55;;;;;;;26.77;51.25;96407.50;5285415;55;20133;-80
2021/09/12 11:29:37;;;;;;;2.70;2.50;;;;;;;26.91;51.04;96405.97;5264334;56;20115;-80
2021/09/12 11:34:44;;;;;;;2.40;2.20;;;;;;;27.10;47.55;96404.78;5291472;56;20124;-80
2021/09/12 11:39:52;;;;;;;2.67;2.47;;;;;;;28.20;50.00;96394.09;5296364;55;20109;-80
2021/09/12 11:44:56;;;;;;;2.80;2.10;;;;;;;28.12;46.76;96385.59;5289018;55;20111;-80
2021/09/12 11:50:01;;;;;;;3.47;1.92;;;;;;;26.84;46.17;96381.22;5288795;56;20160;-80
2021/09/12 11:55:17;;;;;;;2.30;2.00;;;;;;;28.18;48.90;96380.44;5290141;56;20598;-80
2021/09/12 12:00:20;;;;;;;2.22;2.03;;;;;;;28.13;50.38;96378.59;5293370;55;20215;-79
2021/09/12 12:05:23;;;;;;;2.70;2.55;;;;;;;27.88;47.69;96377.78;5313195;55;20115;-80
2021/09/12 12:10:33;;;;;;;2.40;2.20;;;;;;;27.47;48.19;96369.88;5312374;55;20127;-80
2021/09/12 12:15:42;;;;;;;2.45;2.20;;;;;;;26.26;51.09;96361.59;5281471;55;20125;-80
2021/09/12 12:20:45;;;;;;;2.20;2.10;;;;;;;25.70;52.62;96359.81;5259333;56;20572;-80
2021/09/12 12:25:48;;;;;;;2.40;2.20;;;;;;;24.62;54.16;96364.00;5303318;55;20223;-80
2021/09/12 12:31:12;;;;;;;2.63;2.42;;;;;;;24.39;55.47;96351.78;5295792;55;20143;-80
2021/09/12 12:36:19;;;;;;;2.50;2.40;;;;;;;24.40;55.39;96347.66;5289499;55;20149;-81
2021/09/12 12:41:26;;;;;;;2.33;2.17;;;;;;;25.44;54.95;96343.88;5282450;55;20120;-81
2021/09/12 12:46:45;;;;;;;2.28;2.17;;;;;;;26.74;50.65;96339.84;5294680;55;20147;-81
2021/09/12 12:52:09;;;;;;;4.03;2.20;;;;;;;27.27;46.13;96325.47;5308575;55;20132;-81
2021/09/12 12:57:13;;;;;;;2.22;2.13;;;;;;;28.05;47.55;96317.47;5311339;55;20273;-79
2021/09/12 13:02:16;;;;;;;1.90;1.80;;;;;;;28.57;46.59;96319.09;5289632;55;20114;-79
2021/09/12 13:07:19;;;;;;;1.88;1.77;;;;;;;27.90;46.55;96311.88;5285826;56;20115;-80
2021/09/12 13:12:21;;;;;;;2.20;2.10;;;;;;;26.34;50.22;96308.53;5277090;56;20138;-80
2021/09/12 13:17:27;;;;;;;3.33;2.28;;;;;;;25.39;52.50;96305.19;5279630;56;20120;-79
2021/09/12 13:22:30;;;;;;;2.47;2.28;;;;;;;25.43;55.86;96294.28;5273617;56;20111;-79
2021/09/12 13:27:32;;;;;;;2.22;2.03;;;;;;;26.19;55.17;96292.28;5283960;56;20115;-80
2021/09/12 13:32:34;;;;;;;2.35;2.03;;;;;;;26.72;51.41;96289.34;5283137;56;20137;-80
2021/09/12 13:37:37;;;;;;;3.75;1.98;;;;;;;27.97;46.26;96289.09;5288648;55;20269;-78
2021/09/12 13:42:41;;;;;;;2.20;2.00;;;;;;;27.48;45.75;96280.53;5291378;55;20118;-79
2021/09/12 13:47:43;;;;;;;1.92;1.83;;;;;;;27.25;46.70;96279.91;5289330;55;20120;-78
2021/09/12 13:52:46;;;;;;;2.35;2.22;;;;;;;27.39;45.88;96279.06;5273113;55;20960;-79
2021/09/12 13:57:49;;;;;;;2.55;2.35;;;;;;;26.95;46.60;96278.72;5276285;55;20156;-80
2021/09/12 14:02:52;;;;;;;2.00;1.90;;;;;;;26.78;47.12;96270.06;5291680;55;20110;-80
2021/09/12 14:07:55;;;;;;;2.15;2.05;;;;;;;26.95;46.20;96261.69;5288359;55;20110;-80
2021/09/12 14:12:57;;;;;;;2.40;2.20;;;;;;;27.07;46.10;96266.94;5286489;55;20135;-81
2021/09/12 14:17:59;;;;;;;1.98;1.88;;;;;;;27.61;47.44;96255.47;5296549;55;20103;-80
2021/09/12 14:23:02;;;;;;;1.90;1.80;;;;;;;27.81;45.68;96258.53;5285618;56;20102;-79
2021/09/12 14:28:07;;;;;;;2.28;2.00;;;;;;;27.75;46.97;96260.88;5277111;56;20676;-80
2021/09/12 14:33:10;;;;;;;2.35;1.98;;;;;;;28.50;45.18;96262.28;5280173;55;20120;-78
2021/09/12 14:38:12;;;;;;;2.20;2.10;;;;;;;28.54;51.01;96251.28;5297028;55;20577;-79
2021/09/12 14:43:15;;;;;;;2.85;2.00;;;;;;;27.81;45.22;96238.66;5299966;55;20642;-81
2021/09/12 14:48:17;;;;;;;3.10;2.05;;;;;;;27.48;46.23;96235.88;5309379;55;20123;-79
2021/09/12 14:53:20;;;;;;;2.92;2.00;;;;;;;27.12;47.39;96235.50;5313653;55;20132;-79
2021/09/12 14:58:22;;;;;;;2.10;2.00;;;;;;;26.91;49.53;96232.97;5312991;55;20132;-79
2021/09/12 15:03:25;;;;;;;1.98;1.88;;;;;;;26.83;50.80;96234.31;5312820;55;20215;-80
2021/09/12 15:08:27;;;;;;;2.30;2.20;;;;;;;26.19;49.48;96226.38;5313162;55;20119;-79
2021/09/12 15:13:30;;;;;;;3.70;2.08;;;;;;;25.82;51.34;96229.97;5312928;55;20136;-80
2021/09/12 15:18:33;;;;;;;2.35;2.22;;;;;;;26.04;51.19;96232.03;5312733;55;20114;-79
2021/09/12 15:23:36;;;;;;;2.30;2.10;;;;;;;25.31;51.32;96230.09;5313316;55;20110;-80
2021/09/12 15:28:38;;;;;;;2.13;2.03;;;;;;;24.83;53.08;96234.72;5311789;55;20105;-79
2021/09/12 15:33:40;;;;;;;2.53;2.33;;;;;;;24.48;54.30;96241.09;5303852;55;20136;-81
2021/09/12 15:38:43;;;;;;;2.67;2.47;;;;;;;24.30;55.86;96236.50;5297783;55;20125;-81
2021/09/12 15:43:45;;;;;;;4.15;2.28;;;;;;;24.02;55.81;96232.34;5270442;56;20134;-81
2021/09/12 15:48:47;;;;;;;2.40;2.20;;;;;;;23.78;58.38;96227.09;5271101;56;20137;-81
2021/09/12 15:53:49;;;;;;;2.50;2.30;;;;;;;23.57;59.25;96217.88;5273531;56;20129;-81
2021/09/12 15:58:53;;;;;;;4.28;2.42;;;;;;;23.39;60.95;96227.31;5291784;55;20102;-81
2021/09/12 16:03:55;;;;;;;2.22;2.13;;;;;;;23.05;62.30;96235.78;5294119;55;20110;-80
2021/09/12 16:08:58;;;;;;;2.40;2.30;;;;;;;22.50;63.63;96198.31;5304786;55;20217;-81
2021/09/12 16:14:00;;;;;;;2.50;2.30;;;;;;;22.63;62.81;96226.50;5305556;55;20118;-82
2021/09/12 16:19:03;;;;;;;2.80;2.60;;;;;;;22.41;65.66;96223.38;5326725;55;20142;-80
2021/09/12 16:24:05;;;;;;;3.28;2.50;;;;;;;22.45;66.08;96227.38;5321876;55;20118;-81
2021/09/12 16:29:07;;;;;;;4.70;2.65;;;;;;;22.41;67.25;96210.03;5289028;56;20124;-82
2021/09/12 16:34:10;;;;;;;2.95;2.75;;;;;;;22.30;68.09;96227.16;5286152;55;20666;-81
2021/09/12 16:39:12;;;;;;;2.58;2.38;;;;;;;22.18;70.42;96220.25;5271615;55;20110;-81
2021/09/12 16:44:16;;;;;;;2.63;2.42;;;;;;;22.06;72.93;96233.03;5267905;56;20130;-82
2021/09/12 16:49:19;;;;;;;2.80;2.60;;;;;;;21.72;75.44;96227.22;5271905;55;20116;-82
2021/09/12 16:54:21;;;;;;;2.88;2.67;;;;;;;21.42;78.10;96224.69;5310889;55;20146;-81
2021/09/12 16:59:24;;;;;;;4.70;3.22;;;;;;;21.35;76.64;96222.50;5326089;55;20156;-80
2021/09/12 17:04:27;;;;;;;3.22;3.03;;;;;;;21.37;74.67;96228.34;5312708;55;20208;-81
2021/09/12 17:09:30;;;;;;;3.25;2.92;;;;;;;21.29;77.93;96232.31;5308408;56;20199;-82
2021/09/12 17:14:35;;;;;;;3.10;2.83;;;;;;;21.27;77.97;96215.25;5309931;56;20098;-81
2021/09/12 17:19:37;;;;;;;3.00;2.80;;;;;;;21.23;79.57;96237.28;5307735;56;20107;-81
2021/09/12 17:24:40;;;;;;;3.03;2.72;;;;;;;20.91;81.05;96242.84;5301283;56;20136;-82
2021/09/12 17:29:42;;;;;;;4.65;3.10;;;;;;;20.59;82.87;96228.00;5296832;56;20111;-81
2021/09/12 17:34:45;;;;;;;2.80;2.60;;;;;;;20.40;83.29;96238.47;5294523;56;20294;-80
2021/09/12 17:39:47;;;;;;;3.80;2.72;;;;;;;20.31;83.67;96238.84;5295233;56;20136;-81
2021/09/12 17:44:50;;;;;;;3.28;2.97;;;;;;;19.90;85.09;96244.63;5293057;55;20110;-82
2021/09/12 17:49:52;;;;;;;3.13;2.92;;;;;;;19.71;85.84;96243.78;5278775;55;20118;-82
2021/09/12 17:54:54;;;;;;;3.38;2.97;;;;;;;19.67;85.64;96246.13;5272646;56;20125;-82
2021/09/12 17:59:57;;;;;;;4.03;3.22;;;;;;;19.43;86.30;96252.47;5291786;55;20110;-77
2021/09/12 18:05:00;;;;;;;3.33;3.10;;;;;;;19.13;87.29;96252.41;5289195;55;20151;-78
2021/09/12 18:10:04;;;;;;;3.20;2.75;;;;;;;18.98;88.24;96260.41;5280484;55;20110;-78
2021/09/12 18:15:07;;;;;;;3.25;2.95;;;;;;;18.85;88.95;96273.50;5291431;55;20129;-77
2021/09/12 18:20:10;;;;;;;3.25;3.05;;;;;;;18.65;89.59;96273.88;5306988;55;20130;-78
2021/09/12 18:25:12;;;;;;;5.82;3.30;;;;;;;18.70;88.93;96279.44;5285546;56;20110;-79
2021/09/12 18:30:15;;;;;;;3.40;3.13;;;;;;;18.72;89.25;96288.09;5290072;56;20115;-78
2021/09/12 18:35:17;;;;;;;3.53;3.22;;;;;;;18.45;90.02;96295.31;5289948;56;20137;-78
2021/09/12 18:40:21;;;;;;;4.07;3.28;;;;;;;18.32;90.15;96299.91;5289749;56;20637;-78
2021/09/12 18:45:23;;;;;;;3.78;3.47;;;;;;;18.21;90.90;96302.75;5289287;56;20106;-77
2021/09/12 18:50:26;;;;;;;3.38;3.15;;;;;;;18.21;90.94;96305.53;5286699;56;20128;-77
2021/09/12 18:55:29;;;;;;;4.47;3.35;;;;;;;18.15;91.64;96308.38;5287605;56;20242;-77
2021/09/12 19:00:31;;;;;;;4.28;3.53;;;;;;;18.18;91.31;96317.78;5288081;56;20151;-77
2021/09/12 19:05:33;;;;;;;7.90;3.05;;;;;;;18.11;91.26;96321.09;5287371;56;20216;-77
2021/09/12 19:10:36;;;;;;;6.93;3.38;;;;;;;18.01;92.60;96331.78;5289362;56;20103;-77
2021/09/12 19:15:38;;;;;;;4.25;3.53;;;;;;;17.73;92.98;96331.09;5290709;56;20129;-78
2021/09/12 19:20:41;;;;;;;4.07;3.60;;;;;;;17.60;93.28;96331.59;5290495;56;20676;-77
2021/09/12 19:25:43;;;;;;;4.13;3.65;;;;;;;17.58;94.41;96334.13;5291304;56;20119;-78
2021/09/12 19:30:45;;;;;;;3.83;3.53;;;;;;;17.64;93.45;96331.34;5290318;56;20684;-78
2021/09/12 19:35:48;;;;;;;4.38;3.60;;;;;;;17.58;93.65;96331.34;5291906;56;20132;-79
2021/09/12 19:40:50;;;;;;;3.97;3.60;;;;;;;17.69;92.63;96330.56;5306124;55;20212;-77
2021/09/12 19:45:53;;;;;;;3.88;3.58;;;;;;;17.46;93.33;96334.63;5293424;56;20124;-80
2021/09/12 19:50:56;;;;;;;3.70;3.40;;;;;;;17.36;93.43;96338.91;5282447;56;20119;-79
2021/09/12 19:56:00;;;;;;;3.80;3.50;;;;;;;17.16;94.35;96337.13;5277042;56;20111;-76
2021/09/12 20:01:05;;;;;;;4.15;3.50;;;;;;;17.09;94.69;96330.00;5286568;56;20128;-78
2021/09/12 20:06:09;;;;;;;5.13;3.97;;;;;;;17.11;94.76;96335.84;5288776;56;20115;-78
2021/09/12 20:11:11;;;;;;;3.85;3.47;;;;;;;17.10;94.27;96341.91;5290435;55;20110;-79
2021/09/12 20:16:14;;;;;;;4.03;3.72;;;;;;;17.12;93.90;96345.72;5297697;55;20128;-78
2021/09/12 20:21:20;;;;;;;3.78;3.45;;;;;;;17.18;93.62;96348.53;5286049;56;20177;-78
2021/09/12 20:26:23;;;;;;;5.05;3.38;;;;;;;17.07;93.92;96345.72;5287450;56;20124;-77
2021/09/12 20:31:25;;;;;;;4.15;3.70;;;;;;;17.04;94.45;96352.31;5279512;56;20576;-77
2021/09/12 20:36:28;;;;;;;3.75;3.45;;;;;;;16.88;94.95;96348.22;5264153;56;20679;-78
2021/09/12 20:41:30;;;;;;;4.15;3.50;;;;;;;16.81;95.10;96353.50;5271717;55;20256;-78
2021/09/12 20:46:33;;;;;;;3.83;3.53;;;;;;;16.85;94.79;96356.81;5284396;55;20149;-78
2021/09/12 20:51:35;;;;;;;4.43;3.63;;;;;;;16.88;94.71;96362.19;5273589;55;20124;-78
2021/09/12 20:56:37;;;;;;;4.15;3.45;;;;;;;16.85;95.07;96357.59;5285227;55;20110;-77
2021/09/12 21:01:40;;;;;;;3.35;3.15;;;;;;;16.75;95.33;96355.53;5276215;55;20129;-78
2021/09/12 21:06:43;;;;;;;3.55;3.30;;;;;;;16.64;95.70;96370.22;5272582;56;20727;-77
2021/09/12 21:11:45;;;;;;;4.38;3.90;;;;;;;16.69;95.82;96363.13;5271090;56;20169;-78
2021/09/12 21:16:47;;;;;;;4.07;3.78;;;;;;;16.47;95.96;96358.19;5275095;56;20121;-78
2021/09/12 21:21:50;;;;;;;3.97;3.67;;;;;;;16.37;96.65;96359.66;5279416;56;20115;-78
2021/09/12 21:26:52;;;;;;;4.20;3.88;;;;;;;16.43;96.06;96364.00;5265830;56;20129;-78
2021/09/12 21:31:54;;;;;;;3.78;3.50;;;;;;;16.36;95.83;96366.50;5265174;56;20125;-78
2021/09/12 21:36:57;;;;;;;4.72;3.60;;;;;;;16.35;95.63;96376.88;5266286;56;20147;-78
2021/09/12 21:41:59;;;;;;;4.45;4.05;;;;;;;16.28;95.77;96368.25;5266100;56;20710;-77
2021/09/12 21:47:02;;;;;;;4.70;4.20;;;;;;;16.38;96.26;96380.69;5264727;56;20134;-78
2021/09/12 21:52:04;;;;;;;4.55;4.15;;;;;;;16.37;96.06;96371.56;5265214;56;20116;-78
2021/09/12 21:57:07;;;;;;;4.85;4.35;;;;;;;16.35;95.71;96367.78;5268318;55;20676;-78
2021/09/12 22:02:09;;;;;;;4.53;4.13;;;;;;;16.29;95.65;96376.09;5276507;55;20599;-78
2021/09/12 22:07:12;;;;;;;4.25;3.88;;;;;;;16.25;96.38;96358.06;5290364;56;20588;-79
2021/09/12 22:12:15;;;;;;;10.48;3.97;;;;;;;16.10;96.41;96365.84;5289603;56;20579;-77
2021/09/12 22:17:17;;;;;;;4.45;4.05;;;;;;;16.09;95.96;96364.31;5287010;56;20129;-77
2021/09/12 22:22:20;;;;;;;4.38;3.83;;;;;;;16.01;96.24;96352.84;5287177;55;20119;-78
2021/09/12 22:27:23;;;;;;;4.43;4.03;;;;;;;16.11;96.43;96368.13;5275365;55;20134;-77
2021/09/12 22:32:25;;;;;;;5.25;4.18;;;;;;;16.22;96.33;96368.19;5280018;55;20111;-77
2021/09/12 22:37:28;;;;;;;4.90;4.38;;;;;;;16.27;96.82;96367.47;5277656;55;20111;-78
2021/09/12 22:42:31;;;;;;;4.50;4.10;;;;;;;16.43;96.07;96364.00;5268252;55;20129;-77
2021/09/12 22:47:34;;;;;;;4.32;4.03;;;;;;;16.46;96.73;96362.25;5269336;56;20120;-79
2021/09/12 22:52:37;;;;;;;3.92;3.55;;;;;;;16.59;95.91;96370.94;5272463;56;20116;-79
2021/09/12 22:57:39;;;;;;;4.13;3.67;;;;;;;16.66;95.51;96364.91;5270099;55;20133;-77
2021/09/12 23:02:42;;;;;;;4.25;3.80;;;;;;;16.70;95.41;96364.66;5304822;56;20102;-76
2021/09/12 23:07:45;;;;;;;5.72;4.03;;;;;;;16.57;95.81;96362.31;5292617;55;20110;-77
2021/09/12 23:12:49;;;;;;;5.43;3.85;;;;;;;16.59;95.55;96368.16;5280501;55;20163;-77
2021/09/12 23:17:51;;;;;;;4.28;3.88;;;;;;;16.60;95.89;96358.50;5288557;55;20646;-77
2021/09/12 23:22:54;;;;;;;5.10;4.55;;;;;;;16.56;96.81;96368.38;5285146;56;20097;-77
2021/09/12 23:27:56;;;;;;;5.13;4.38;;;;;;;16.59;96.62;96359.03;5286773;56;20119;-77
2021/09/12 23:32:59;;;;;;;4.72;4.25;;;;;;;16.68;96.26;96367.94;5289875;56;20579;-77
2021/09/12 23:38:01;;;;;;;7.05;4.90;;;;;;;16.62;96.86;96381.13;5277978;55;20569;-77
2021/09/12 23:43:03;;;;;;;5.30;4.80;;;;;;;16.64;96.92;96369.44;5293152;55;20582;-77
2021/09/12 23:48:06;;;;;;;6.65;4.88;;;;;;;16.80;96.51;96363.16;5290753;55;20151;-77
2021/09/12 23:53:08;;;;;;;5.93;5.43;;;;;;;16.94;95.58;96365.75;5290804;55;20123;-77
2021/09/12 23:58:10;;;;;;;5.68;5.07;;;;;;;17.02;95.21;96369.59;5296886;55;20120;-77
